sensor_id;sensor_type;location;lat;lon;timestamp;temperature;humidity
4934;DHT22;2482;49.154;8.254;2022-11-13T00:01:14;6.40;99.90
4934;DHT22;2482;49.154;8.254;2022-11-13T00:03:42;6.30;99.90
4934;DHT22;2482;49.154;8.254;2022-11-13T00:06:10;6.30;99.90
4934;DHT22;2482;49.154;8.254;2022-11-13T00:08:38;6.30;99.90
4934;DHT22;2482;49.154;8.254;2022-11-13T00:11:16;6.30;99.90
4934;DHT22;2482;49.154;8.254;2022-11-13T00:13:45;6.30;99.90
4934;DHT22;2482;49.154;8.254;2022-11-13T00:16:18;6.40;99.90
4934;DHT22;2482;49.154;8.254;2022-11-13T00:18:46;6.50;99.90
4934;DHT22;2482;49.154;8.254;2022-11-13T00:21:19;6.50;99.90
4934;DHT22;2482;49.154;8.254;2022-11-13T00:23:48;6.30;99.90
4934;DHT22;2482;49.154;8.254;2022-11-13T00:26:21;6.40;99.90
4934;DHT22;2482;49.154;8.254;2022-11-13T00:28:54;6.40;99.90
4934;DHT22;2482;49.154;8.254;2022-11-13T00:31:22;6.40;99.90
4934;DHT22;2482;49.154;8.254;2022-11-13T00:33:49;6.40;99.90
4934;DHT22;2482;49.154;8.254;2022-11-13T00:36:37;6.30;99.90
4934;DHT22;2482;49.154;8.254;2022-11-13T00:39:03;6.30;99.90
4934;DHT22;2482;49.154;8.254;2022-11-13T00:41:30;6.50;99.90
4934;DHT22;2482;49.154;8.254;2022-11-13T00:43:57;6.40;99.90
4934;DHT22;2482;49.154;8.254;2022-11-13T00:46:24;6.50;99.90
4934;DHT22;2482;49.154;8.254;2022-11-13T00:48:51;6.40;99.90
4934;DHT22;2482;49.154;8.254;2022-11-13T00:51:18;6.30;99.90
4934;DHT22;2482;49.154;8.254;2022-11-13T00:53:46;6.40;99.90
4934;DHT22;2482;49.154;8.254;2022-11-13T00:56:13;6.30;99.90
4934;DHT22;2482;49.154;8.254;2022-11-13T00:58:40;6.20;99.90
4934;DHT22;2482;49.154;8.254;2022-11-13T01:01:12;6.40;99.90
4934;DHT22;2482;49.154;8.254;2022-11-13T01:03:41;6.40;99.90
4934;DHT22;2482;49.154;8.254;2022-11-13T01:06:25;6.30;99.90
4934;DHT22;2482;49.154;8.254;2022-11-13T01:08:54;6.30;99.90
4934;DHT22;2482;49.154;8.254;2022-11-13T01:11:24;6.40;99.90
4934;DHT22;2482;49.154;8.254;2022-11-13T01:13:54;6.50;99.90
4934;DHT22;2482;49.154;8.254;2022-11-13T01:16:25;6.40;99.90
4934;DHT22;2482;49.154;8.254;2022-11-13T01:18:54;6.50;99.90
4934;DHT22;2482;49.154;8.254;2022-11-13T01:21:24;6.50;99.90
4934;DHT22;2482;49.154;8.254;2022-11-13T01:23:52;6.50;99.90
4934;DHT22;2482;49.154;8.254;2022-11-13T01:26:26;6.40;99.90
4934;DHT22;2482;49.154;8.254;2022-11-13T01:28:54;6.40;99.90
4934;DHT22;2482;49.154;8.254;2022-11-13T01:31:24;6.40;99.90
4934;DHT22;2482;49.154;8.254;2022-11-13T01:33:54;6.30;99.90
4934;DHT22;2482;49.154;8.254;2022-11-13T01:36:25;6.40;99.90
4934;DHT22;2482;49.154;8.254;2022-11-13T01:38:55;6.50;99.90
4934;DHT22;2482;49.154;8.254;2022-11-13T01:41:31;6.40;99.90
4934;DHT22;2482;49.154;8.254;2022-11-13T01:44:00;6.40;99.90
4934;DHT22;2482;49.154;8.254;2022-11-13T01:49:03;6.40;99.90
4934;DHT22;2482;49.154;8.254;2022-11-13T01:51:59;6.60;99.90
4934;DHT22;2482;49.154;8.254;2022-11-13T01:54:33;6.40;99.90
4934;DHT22;2482;49.154;8.254;2022-11-13T01:57:02;6.40;99.90
4934;DHT22;2482;49.154;8.254;2022-11-13T01:59:34;6.30;99.90
4934;DHT22;2482;49.154;8.254;2022-11-13T02:02:05;6.30;99.90
4934;DHT22;2482;49.154;8.254;2022-11-13T02:04:33;6.60;99.90
4934;DHT22;2482;49.154;8.254;2022-11-13T02:07:03;6.40;99.90
4934;DHT22;2482;49.154;8.254;2022-11-13T02:09:40;6.50;99.90
4934;DHT22;2482;49.154;8.254;2022-11-13T02:12:14;6.40;99.90
4934;DHT22;2482;49.154;8.254;2022-11-13T02:14:49;6.30;99.90
4934;DHT22;2482;49.154;8.254;2022-11-13T02:17:29;6.40;99.90
4934;DHT22;2482;49.154;8.254;2022-11-13T02:19:59;6.50;99.90
4934;DHT22;2482;49.154;8.254;2022-11-13T02:25:34;6.30;99.90
4934;DHT22;2482;49.154;8.254;2022-11-13T02:28:02;6.30;99.90
4934;DHT22;2482;49.154;8.254;2022-11-13T02:30:32;6.20;99.90
4934;DHT22;2482;49.154;8.254;2022-11-13T02:33:00;6.20;99.90
4934;DHT22;2482;49.154;8.254;2022-11-13T02:35:32;6.30;99.90
4934;DHT22;2482;49.154;8.254;2022-11-13T02:38:03;6.10;99.90
4934;DHT22;2482;49.154;8.254;2022-11-13T02:40:32;6.40;99.90
4934;DHT22;2482;49.154;8.254;2022-11-13T02:42:59;6.20;99.90
4934;DHT22;2482;49.154;8.254;2022-11-13T02:45:26;6.20;99.90
4934;DHT22;2482;49.154;8.254;2022-11-13T02:47:53;6.10;99.90
4934;DHT22;2482;49.154;8.254;2022-11-13T02:50:20;6.30;99.90
4934;DHT22;2482;49.154;8.254;2022-11-13T02:52:47;6.10;99.90
4934;DHT22;2482;49.154;8.254;2022-11-13T02:55:14;6.20;99.90
4934;DHT22;2482;49.154;8.254;2022-11-13T02:57:41;6.10;99.90
4934;DHT22;2482;49.154;8.254;2022-11-13T03:00:08;6.10;99.90
4934;DHT22;2482;49.154;8.254;2022-11-13T03:02:40;6.10;99.90
4934;DHT22;2482;49.154;8.254;2022-11-13T03:05:07;6.10;99.90
4934;DHT22;2482;49.154;8.254;2022-11-13T03:07:39;6.10;99.90
4934;DHT22;2482;49.154;8.254;2022-11-13T03:10:07;6.10;99.90
4934;DHT22;2482;49.154;8.254;2022-11-13T03:12:35;6.10;99.90
4934;DHT22;2482;49.154;8.254;2022-11-13T03:15:04;6.10;99.90
4934;DHT22;2482;49.154;8.254;2022-11-13T03:17:31;6.10;99.90
4934;DHT22;2482;49.154;8.254;2022-11-13T03:19:58;6.20;99.90
4934;DHT22;2482;49.154;8.254;2022-11-13T03:22:26;6.30;99.90
4934;DHT22;2482;49.154;8.254;2022-11-13T03:24:53;6.00;99.90
4934;DHT22;2482;49.154;8.254;2022-11-13T03:27:20;6.10;99.90
4934;DHT22;2482;49.154;8.254;2022-11-13T03:29:47;6.00;99.90
4934;DHT22;2482;49.154;8.254;2022-11-13T03:32:15;6.10;99.90
4934;DHT22;2482;49.154;8.254;2022-11-13T03:34:41;6.00;99.90
4934;DHT22;2482;49.154;8.254;2022-11-13T03:37:08;6.00;99.90
4934;DHT22;2482;49.154;8.254;2022-11-13T03:39:35;6.00;99.90
4934;DHT22;2482;49.154;8.254;2022-11-13T03:42:02;6.00;99.90
4934;DHT22;2482;49.154;8.254;2022-11-13T03:44:29;5.90;99.90
4934;DHT22;2482;49.154;8.254;2022-11-13T03:46:56;5.90;99.90
4934;DHT22;2482;49.154;8.254;2022-11-13T03:49:23;5.90;99.90
4934;DHT22;2482;49.154;8.254;2022-11-13T03:51:50;6.10;99.90
4934;DHT22;2482;49.154;8.254;2022-11-13T03:54:17;6.00;99.90
4934;DHT22;2482;49.154;8.254;2022-11-13T03:56:44;6.00;99.90
4934;DHT22;2482;49.154;8.254;2022-11-13T03:59:11;5.90;99.90
4934;DHT22;2482;49.154;8.254;2022-11-13T04:01:38;6.00;99.90
4934;DHT22;2482;49.154;8.254;2022-11-13T04:04:05;6.00;99.90
4934;DHT22;2482;49.154;8.254;2022-11-13T04:06:32;6.00;99.90
4934;DHT22;2482;49.154;8.254;2022-11-13T04:08:59;6.20;99.90
4934;DHT22;2482;49.154;8.254;2022-11-13T04:11:26;6.00;99.90
4934;DHT22;2482;49.154;8.254;2022-11-13T04:13:53;5.90;99.90
4934;DHT22;2482;49.154;8.254;2022-11-13T04:16:20;5.90;99.90
4934;DHT22;2482;49.154;8.254;2022-11-13T04:18:47;5.90;99.90
4934;DHT22;2482;49.154;8.254;2022-11-13T04:21:14;5.90;99.90
4934;DHT22;2482;49.154;8.254;2022-11-13T04:23:41;5.80;99.90
4934;DHT22;2482;49.154;8.254;2022-11-13T04:26:08;5.70;99.90
4934;DHT22;2482;49.154;8.254;2022-11-13T04:28:36;5.70;99.90
4934;DHT22;2482;49.154;8.254;2022-11-13T04:31:04;5.60;99.90
4934;DHT22;2482;49.154;8.254;2022-11-13T04:33:32;5.60;99.90
4934;DHT22;2482;49.154;8.254;2022-11-13T04:35:59;5.60;99.90
4934;DHT22;2482;49.154;8.254;2022-11-13T04:38:26;5.50;99.90
4934;DHT22;2482;49.154;8.254;2022-11-13T04:40:54;5.50;99.90
4934;DHT22;2482;49.154;8.254;2022-11-13T04:43:41;5.40;99.90
4934;DHT22;2482;49.154;8.254;2022-11-13T04:46:08;5.40;99.90
4934;DHT22;2482;49.154;8.254;2022-11-13T04:48:34;5.40;99.90
4934;DHT22;2482;49.154;8.254;2022-11-13T04:51:01;5.30;99.90
4934;DHT22;2482;49.154;8.254;2022-11-13T04:53:28;5.40;99.90
4934;DHT22;2482;49.154;8.254;2022-11-13T04:55:55;5.30;99.90
4934;DHT22;2482;49.154;8.254;2022-11-13T04:58:22;5.30;99.90
4934;DHT22;2482;49.154;8.254;2022-11-13T05:00:49;5.50;99.90
4934;DHT22;2482;49.154;8.254;2022-11-13T05:03:16;5.30;99.90
4934;DHT22;2482;49.154;8.254;2022-11-13T05:05:43;5.30;99.90
4934;DHT22;2482;49.154;8.254;2022-11-13T05:08:10;5.30;99.90
4934;DHT22;2482;49.154;8.254;2022-11-13T05:10:38;5.30;99.90
4934;DHT22;2482;49.154;8.254;2022-11-13T05:13:05;5.20;99.90
4934;DHT22;2482;49.154;8.254;2022-11-13T05:15:32;5.10;99.90
4934;DHT22;2482;49.154;8.254;2022-11-13T05:17:59;5.10;99.90
4934;DHT22;2482;49.154;8.254;2022-11-13T05:20:26;5.30;99.90
4934;DHT22;2482;49.154;8.254;2022-11-13T05:22:52;5.10;99.90
4934;DHT22;2482;49.154;8.254;2022-11-13T05:25:19;5.10;99.90
4934;DHT22;2482;49.154;8.254;2022-11-13T05:27:46;5.00;99.90
4934;DHT22;2482;49.154;8.254;2022-11-13T05:30:14;5.00;99.90
4934;DHT22;2482;49.154;8.254;2022-11-13T05:32:41;4.90;99.90
4934;DHT22;2482;49.154;8.254;2022-11-13T05:35:08;4.90;99.90
4934;DHT22;2482;49.154;8.254;2022-11-13T05:37:36;4.90;99.90
4934;DHT22;2482;49.154;8.254;2022-11-13T05:40:03;4.80;99.90
4934;DHT22;2482;49.154;8.254;2022-11-13T05:42:31;4.80;99.90
4934;DHT22;2482;49.154;8.254;2022-11-13T05:44:58;4.80;99.90
4934;DHT22;2482;49.154;8.254;2022-11-13T05:47:24;4.80;99.90
4934;DHT22;2482;49.154;8.254;2022-11-13T05:49:51;4.80;99.90
4934;DHT22;2482;49.154;8.254;2022-11-13T05:52:18;4.80;99.90
4934;DHT22;2482;49.154;8.254;2022-11-13T05:54:45;4.80;99.90
4934;DHT22;2482;49.154;8.254;2022-11-13T05:57:12;4.90;99.90
4934;DHT22;2482;49.154;8.254;2022-11-13T05:59:39;4.90;99.90
4934;DHT22;2482;49.154;8.254;2022-11-13T06:02:06;4.70;99.90
4934;DHT22;2482;49.154;8.254;2022-11-13T06:04:33;4.80;99.90
4934;DHT22;2482;49.154;8.254;2022-11-13T06:07:00;4.80;99.90
4934;DHT22;2482;49.154;8.254;2022-11-13T06:09:27;4.70;99.90
4934;DHT22;2482;49.154;8.254;2022-11-13T06:11:54;4.60;99.90
4934;DHT22;2482;49.154;8.254;2022-11-13T06:14:21;4.80;99.90
4934;DHT22;2482;49.154;8.254;2022-11-13T06:16:48;4.60;99.90
4934;DHT22;2482;49.154;8.254;2022-11-13T06:19:15;4.50;99.90
4934;DHT22;2482;49.154;8.254;2022-11-13T06:21:42;4.50;99.90
4934;DHT22;2482;49.154;8.254;2022-11-13T06:24:10;4.50;99.90
4934;DHT22;2482;49.154;8.254;2022-11-13T06:26:38;4.40;99.90
4934;DHT22;2482;49.154;8.254;2022-11-13T06:29:07;4.50;99.90
4934;DHT22;2482;49.154;8.254;2022-11-13T06:31:36;4.40;99.90
4934;DHT22;2482;49.154;8.254;2022-11-13T06:34:04;4.50;99.90
4934;DHT22;2482;49.154;8.254;2022-11-13T06:36:34;4.40;99.90
4934;DHT22;2482;49.154;8.254;2022-11-13T06:39:05;4.50;99.90
4934;DHT22;2482;49.154;8.254;2022-11-13T06:41:33;4.50;99.90
4934;DHT22;2482;49.154;8.254;2022-11-13T06:44:00;4.40;99.90
4934;DHT22;2482;49.154;8.254;2022-11-13T06:46:29;4.40;99.90
4934;DHT22;2482;49.154;8.254;2022-11-13T06:48:57;4.50;99.90
4934;DHT22;2482;49.154;8.254;2022-11-13T06:51:26;4.50;99.90
4934;DHT22;2482;49.154;8.254;2022-11-13T06:53:55;4.50;99.90
4934;DHT22;2482;49.154;8.254;2022-11-13T06:56:22;4.60;99.90
4934;DHT22;2482;49.154;8.254;2022-11-13T06:58:49;4.50;99.90
4934;DHT22;2482;49.154;8.254;2022-11-13T07:01:19;4.30;99.90
4934;DHT22;2482;49.154;8.254;2022-11-13T07:03:47;4.30;99.90
4934;DHT22;2482;49.154;8.254;2022-11-13T07:06:20;4.50;99.90
4934;DHT22;2482;49.154;8.254;2022-11-13T07:08:48;4.50;99.90
4934;DHT22;2482;49.154;8.254;2022-11-13T07:11:21;4.50;99.90
4934;DHT22;2482;49.154;8.254;2022-11-13T07:13:49;4.50;99.90
4934;DHT22;2482;49.154;8.254;2022-11-13T07:16:17;4.50;99.90
4934;DHT22;2482;49.154;8.254;2022-11-13T07:18:52;4.50;99.90
4934;DHT22;2482;49.154;8.254;2022-11-13T07:21:20;4.50;99.90
4934;DHT22;2482;49.154;8.254;2022-11-13T07:23:48;4.60;99.90
4934;DHT22;2482;49.154;8.254;2022-11-13T07:26:16;4.50;99.90
4934;DHT22;2482;49.154;8.254;2022-11-13T07:28:43;4.40;99.90
4934;DHT22;2482;49.154;8.254;2022-11-13T07:31:12;4.50;99.90
4934;DHT22;2482;49.154;8.254;2022-11-13T07:33:40;4.70;99.90
4934;DHT22;2482;49.154;8.254;2022-11-13T07:36:07;4.70;99.90
4934;DHT22;2482;49.154;8.254;2022-11-13T07:38:35;4.60;99.90
4934;DHT22;2482;49.154;8.254;2022-11-13T07:41:02;4.70;99.90
4934;DHT22;2482;49.154;8.254;2022-11-13T07:43:29;4.60;99.90
4934;DHT22;2482;49.154;8.254;2022-11-13T07:45:57;4.70;99.90
4934;DHT22;2482;49.154;8.254;2022-11-13T07:48:25;4.60;99.90
4934;DHT22;2482;49.154;8.254;2022-11-13T07:50:59;4.80;99.90
4934;DHT22;2482;49.154;8.254;2022-11-13T07:53:27;5.00;99.90
4934;DHT22;2482;49.154;8.254;2022-11-13T07:55:54;4.70;99.90
4934;DHT22;2482;49.154;8.254;2022-11-13T07:58:21;4.90;99.90
4934;DHT22;2482;49.154;8.254;2022-11-13T08:00:47;4.90;99.90
4934;DHT22;2482;49.154;8.254;2022-11-13T08:03:15;4.80;99.90
4934;DHT22;2482;49.154;8.254;2022-11-13T08:05:43;5.00;99.90
4934;DHT22;2482;49.154;8.254;2022-11-13T08:08:14;4.90;99.90
4934;DHT22;2482;49.154;8.254;2022-11-13T08:10:41;4.80;99.90
4934;DHT22;2482;49.154;8.254;2022-11-13T08:13:10;5.10;99.90
4934;DHT22;2482;49.154;8.254;2022-11-13T08:15:37;5.10;99.90
4934;DHT22;2482;49.154;8.254;2022-11-13T08:18:05;5.10;99.90
4934;DHT22;2482;49.154;8.254;2022-11-13T08:20:32;5.00;99.90
4934;DHT22;2482;49.154;8.254;2022-11-13T08:23:01;5.10;99.90
4934;DHT22;2482;49.154;8.254;2022-11-13T08:25:31;5.00;99.90
4934;DHT22;2482;49.154;8.254;2022-11-13T08:27:59;5.20;99.90
4934;DHT22;2482;49.154;8.254;2022-11-13T08:30:27;4.90;99.90
4934;DHT22;2482;49.154;8.254;2022-11-13T08:32:54;5.00;99.90
4934;DHT22;2482;49.154;8.254;2022-11-13T08:35:21;5.20;99.90
4934;DHT22;2482;49.154;8.254;2022-11-13T08:38:01;5.30;99.90
4934;DHT22;2482;49.154;8.254;2022-11-13T08:40:29;5.30;99.90
4934;DHT22;2482;49.154;8.254;2022-11-13T08:43:01;5.10;99.90
4934;DHT22;2482;49.154;8.254;2022-11-13T08:45:29;5.30;99.90
4934;DHT22;2482;49.154;8.254;2022-11-13T08:48:00;5.20;99.90
4934;DHT22;2482;49.154;8.254;2022-11-13T08:50:29;5.30;99.90
4934;DHT22;2482;49.154;8.254;2022-11-13T08:52:59;5.10;99.90
4934;DHT22;2482;49.154;8.254;2022-11-13T08:55:27;5.20;99.90
4934;DHT22;2482;49.154;8.254;2022-11-13T08:58:00;5.30;99.90
4934;DHT22;2482;49.154;8.254;2022-11-13T09:00:29;5.30;99.90
4934;DHT22;2482;49.154;8.254;2022-11-13T09:02:58;5.10;99.90
4934;DHT22;2482;49.154;8.254;2022-11-13T09:05:26;5.20;99.90
4934;DHT22;2482;49.154;8.254;2022-11-13T09:07:58;5.20;99.90
4934;DHT22;2482;49.154;8.254;2022-11-13T09:10:26;5.30;99.90
4934;DHT22;2482;49.154;8.254;2022-11-13T09:13:02;5.10;99.90
4934;DHT22;2482;49.154;8.254;2022-11-13T09:15:31;5.40;99.90
4934;DHT22;2482;49.154;8.254;2022-11-13T09:17:59;5.30;99.90
4934;DHT22;2482;49.154;8.254;2022-11-13T09:20:28;5.40;99.90
4934;DHT22;2482;49.154;8.254;2022-11-13T09:22:58;5.20;99.90
4934;DHT22;2482;49.154;8.254;2022-11-13T09:25:30;5.30;99.90
4934;DHT22;2482;49.154;8.254;2022-11-13T09:28:04;5.20;99.90
4934;DHT22;2482;49.154;8.254;2022-11-13T09:30:32;5.20;99.90
4934;DHT22;2482;49.154;8.254;2022-11-13T09:33:00;5.30;99.90
4934;DHT22;2482;49.154;8.254;2022-11-13T09:35:28;5.40;99.90
4934;DHT22;2482;49.154;8.254;2022-11-13T09:38:10;5.60;99.90
4934;DHT22;2482;49.154;8.254;2022-11-13T09:43:52;5.90;99.90
4934;DHT22;2482;49.154;8.254;2022-11-13T09:46:35;5.90;99.90
4934;DHT22;2482;49.154;8.254;2022-11-13T09:51:50;5.80;99.90
4934;DHT22;2482;49.154;8.254;2022-11-13T09:54:21;5.90;99.90
4934;DHT22;2482;49.154;8.254;2022-11-13T10:00:00;5.70;99.90
4934;DHT22;2482;49.154;8.254;2022-11-13T10:03:17;5.80;99.90
4934;DHT22;2482;49.154;8.254;2022-11-13T10:10:49;6.20;99.90
4934;DHT22;2482;49.154;8.254;2022-11-13T10:13:30;6.20;99.90
4934;DHT22;2482;49.154;8.254;2022-11-13T10:16:05;6.30;99.90
4934;DHT22;2482;49.154;8.254;2022-11-13T10:18:48;6.30;99.90
4934;DHT22;2482;49.154;8.254;2022-11-13T10:21:30;6.30;99.90
4934;DHT22;2482;49.154;8.254;2022-11-13T10:24:03;6.30;99.90
4934;DHT22;2482;49.154;8.254;2022-11-13T10:26:40;6.20;99.90
4934;DHT22;2482;49.154;8.254;2022-11-13T10:29:12;6.30;99.90
4934;DHT22;2482;49.154;8.254;2022-11-13T10:31:49;6.40;99.90
4934;DHT22;2482;49.154;8.254;2022-11-13T10:34:18;6.20;99.90
4934;DHT22;2482;49.154;8.254;2022-11-13T10:39:46;6.40;99.90
4934;DHT22;2482;49.154;8.254;2022-11-13T10:42:27;6.60;99.90
4934;DHT22;2482;49.154;8.254;2022-11-13T10:44:59;6.60;99.90
4934;DHT22;2482;49.154;8.254;2022-11-13T10:47:30;6.90;99.90
4934;DHT22;2482;49.154;8.254;2022-11-13T10:50:29;7.00;99.90
4934;DHT22;2482;49.154;8.254;2022-11-13T10:52:57;6.90;99.90
4934;DHT22;2482;49.154;8.254;2022-11-13T10:58:09;7.10;99.90
4934;DHT22;2482;49.154;8.254;2022-11-13T11:00:39;7.10;99.90
4934;DHT22;2482;49.154;8.254;2022-11-13T11:03:18;7.40;99.90
4934;DHT22;2482;49.154;8.254;2022-11-13T11:05:54;7.70;99.90
4934;DHT22;2482;49.154;8.254;2022-11-13T11:08:27;7.90;99.90
4934;DHT22;2482;49.154;8.254;2022-11-13T11:11:14;7.90;99.90
4934;DHT22;2482;49.154;8.254;2022-11-13T11:16:58;7.80;99.90
4934;DHT22;2482;49.154;8.254;2022-11-13T11:19:28;7.60;99.90
4934;DHT22;2482;49.154;8.254;2022-11-13T11:22:13;7.50;99.90
4934;DHT22;2482;49.154;8.254;2022-11-13T11:24:57;7.60;99.90
4934;DHT22;2482;49.154;8.254;2022-11-13T11:27:33;7.70;99.90
4934;DHT22;2482;49.154;8.254;2022-11-13T11:30:19;7.80;99.90
4934;DHT22;2482;49.154;8.254;2022-11-13T11:32:59;7.90;99.90
4934;DHT22;2482;49.154;8.254;2022-11-13T11:35:39;7.80;99.90
4934;DHT22;2482;49.154;8.254;2022-11-13T11:38:18;7.90;99.90
4934;DHT22;2482;49.154;8.254;2022-11-13T11:40:54;8.00;99.90
4934;DHT22;2482;49.154;8.254;2022-11-13T11:43:51;8.10;99.90
4934;DHT22;2482;49.154;8.254;2022-11-13T11:46:28;8.10;99.90
4934;DHT22;2482;49.154;8.254;2022-11-13T11:48:59;8.10;99.90
4934;DHT22;2482;49.154;8.254;2022-11-13T11:51:31;8.20;99.90
4934;DHT22;2482;49.154;8.254;2022-11-13T11:57:02;8.50;99.90
4934;DHT22;2482;49.154;8.254;2022-11-13T11:59:57;8.60;99.90
4934;DHT22;2482;49.154;8.254;2022-11-13T12:05:41;8.80;99.90
4934;DHT22;2482;49.154;8.254;2022-11-13T12:11:48;9.10;99.90
4934;DHT22;2482;49.154;8.254;2022-11-13T12:14:32;9.30;99.90
4934;DHT22;2482;49.154;8.254;2022-11-13T12:20:40;9.40;99.90
4934;DHT22;2482;49.154;8.254;2022-11-13T12:26:25;9.80;99.90
4934;DHT22;2482;49.154;8.254;2022-11-13T12:35:30;10.20;99.90
4934;DHT22;2482;49.154;8.254;2022-11-13T12:41:00;10.30;99.90
4934;DHT22;2482;49.154;8.254;2022-11-13T12:46:47;10.50;99.90
4934;DHT22;2482;49.154;8.254;2022-11-13T12:49:35;10.40;99.90
4934;DHT22;2482;49.154;8.254;2022-11-13T12:52:03;10.40;99.90
4934;DHT22;2482;49.154;8.254;2022-11-13T12:54:42;10.40;99.90
4934;DHT22;2482;49.154;8.254;2022-11-13T12:59:42;10.60;99.90
4934;DHT22;2482;49.154;8.254;2022-11-13T13:11:02;10.90;99.90
4934;DHT22;2482;49.154;8.254;2022-11-13T13:16:24;10.80;99.90
4934;DHT22;2482;49.154;8.254;2022-11-13T13:19:03;10.90;99.90
4934;DHT22;2482;49.154;8.254;2022-11-13T13:21:48;10.90;99.90
4934;DHT22;2482;49.154;8.254;2022-11-13T13:24:35;11.00;99.90
4934;DHT22;2482;49.154;8.254;2022-11-13T13:27:24;10.90;99.90
4934;DHT22;2482;49.154;8.254;2022-11-13T13:29:53;10.90;99.90
4934;DHT22;2482;49.154;8.254;2022-11-13T13:32:41;11.00;99.90
4934;DHT22;2482;49.154;8.254;2022-11-13T13:35:43;10.90;99.90
4934;DHT22;2482;49.154;8.254;2022-11-13T13:41:38;10.90;99.90
4934;DHT22;2482;49.154;8.254;2022-11-13T13:46:55;11.00;99.90
4934;DHT22;2482;49.154;8.254;2022-11-13T13:49:24;11.00;99.90
4934;DHT22;2482;49.154;8.254;2022-11-13T13:51:54;11.00;99.90
4934;DHT22;2482;49.154;8.254;2022-11-13T13:54:25;10.80;99.90
4934;DHT22;2482;49.154;8.254;2022-11-13T13:56:55;11.00;99.90
4934;DHT22;2482;49.154;8.254;2022-11-13T13:59:28;11.00;99.90
4934;DHT22;2482;49.154;8.254;2022-11-13T14:01:59;10.80;99.90
4934;DHT22;2482;49.154;8.254;2022-11-13T14:04:32;10.80;99.90
4934;DHT22;2482;49.154;8.254;2022-11-13T14:07:01;10.90;99.90
4934;DHT22;2482;49.154;8.254;2022-11-13T14:09:29;10.80;99.90
4934;DHT22;2482;49.154;8.254;2022-11-13T14:12:05;10.90;99.90
4934;DHT22;2482;49.154;8.254;2022-11-13T14:14:38;10.90;99.90
4934;DHT22;2482;49.154;8.254;2022-11-13T14:17:07;11.00;99.90
4934;DHT22;2482;49.154;8.254;2022-11-13T14:19:35;10.80;99.90
4934;DHT22;2482;49.154;8.254;2022-11-13T14:22:04;10.90;99.90
4934;DHT22;2482;49.154;8.254;2022-11-13T14:24:53;10.80;99.90
4934;DHT22;2482;49.154;8.254;2022-11-13T14:27:25;10.90;99.90
4934;DHT22;2482;49.154;8.254;2022-11-13T14:29:58;10.80;99.90
4934;DHT22;2482;49.154;8.254;2022-11-13T14:32:29;10.70;99.90
4934;DHT22;2482;49.154;8.254;2022-11-13T14:35:00;10.80;99.90
4934;DHT22;2482;49.154;8.254;2022-11-13T14:37:35;10.70;99.90
4934;DHT22;2482;49.154;8.254;2022-11-13T14:40:27;10.60;99.90
4934;DHT22;2482;49.154;8.254;2022-11-13T14:42:58;10.80;99.90
4934;DHT22;2482;49.154;8.254;2022-11-13T14:45:30;10.70;99.90
4934;DHT22;2482;49.154;8.254;2022-11-13T14:50:34;10.70;99.90
4934;DHT22;2482;49.154;8.254;2022-11-13T14:53:04;10.70;99.90
4934;DHT22;2482;49.154;8.254;2022-11-13T14:55:36;10.60;99.90
4934;DHT22;2482;49.154;8.254;2022-11-13T14:58:04;10.40;99.90
4934;DHT22;2482;49.154;8.254;2022-11-13T15:00:34;10.30;99.90
4934;DHT22;2482;49.154;8.254;2022-11-13T15:03:03;10.30;99.90
4934;DHT22;2482;49.154;8.254;2022-11-13T15:05:31;10.40;99.90
4934;DHT22;2482;49.154;8.254;2022-11-13T15:07:58;10.50;99.90
4934;DHT22;2482;49.154;8.254;2022-11-13T15:10:27;10.40;99.90
4934;DHT22;2482;49.154;8.254;2022-11-13T15:12:55;10.30;99.90
4934;DHT22;2482;49.154;8.254;2022-11-13T15:15:26;10.30;99.90
4934;DHT22;2482;49.154;8.254;2022-11-13T15:17:54;10.00;99.90
4934;DHT22;2482;49.154;8.254;2022-11-13T15:20:27;10.00;99.90
4934;DHT22;2482;49.154;8.254;2022-11-13T15:22:57;10.00;99.90
4934;DHT22;2482;49.154;8.254;2022-11-13T15:25:25;10.10;99.90
4934;DHT22;2482;49.154;8.254;2022-11-13T15:27:52;10.00;99.90
4934;DHT22;2482;49.154;8.254;2022-11-13T15:30:19;9.90;99.90
4934;DHT22;2482;49.154;8.254;2022-11-13T15:32:46;9.80;99.90
4934;DHT22;2482;49.154;8.254;2022-11-13T15:35:18;9.60;99.90
4934;DHT22;2482;49.154;8.254;2022-11-13T15:37:46;9.50;99.90
4934;DHT22;2482;49.154;8.254;2022-11-13T15:40:13;9.40;99.90
4934;DHT22;2482;49.154;8.254;2022-11-13T15:42:41;9.30;99.90
4934;DHT22;2482;49.154;8.254;2022-11-13T15:45:14;9.40;99.90
4934;DHT22;2482;49.154;8.254;2022-11-13T15:47:42;9.40;99.90
4934;DHT22;2482;49.154;8.254;2022-11-13T15:50:09;9.30;99.90
4934;DHT22;2482;49.154;8.254;2022-11-13T15:52:44;9.10;99.90
4934;DHT22;2482;49.154;8.254;2022-11-13T15:55:20;9.00;99.90
4934;DHT22;2482;49.154;8.254;2022-11-13T15:57:55;8.80;99.90
4934;DHT22;2482;49.154;8.254;2022-11-13T16:00:25;8.70;99.90
4934;DHT22;2482;49.154;8.254;2022-11-13T16:02:54;8.70;99.90
4934;DHT22;2482;49.154;8.254;2022-11-13T16:05:23;8.50;99.90
4934;DHT22;2482;49.154;8.254;2022-11-13T16:07:52;8.30;99.90
4934;DHT22;2482;49.154;8.254;2022-11-13T16:10:21;8.30;99.90
4934;DHT22;2482;49.154;8.254;2022-11-13T16:12:51;8.30;99.90
4934;DHT22;2482;49.154;8.254;2022-11-13T16:15:18;8.20;99.90
4934;DHT22;2482;49.154;8.254;2022-11-13T16:17:49;8.20;99.90
4934;DHT22;2482;49.154;8.254;2022-11-13T16:20:19;8.00;99.90
4934;DHT22;2482;49.154;8.254;2022-11-13T16:22:46;7.90;99.90
4934;DHT22;2482;49.154;8.254;2022-11-13T16:25:16;7.80;99.90
4934;DHT22;2482;49.154;8.254;2022-11-13T16:27:45;7.80;99.90
4934;DHT22;2482;49.154;8.254;2022-11-13T16:30:19;7.60;99.90
4934;DHT22;2482;49.154;8.254;2022-11-13T16:32:47;7.50;99.90
4934;DHT22;2482;49.154;8.254;2022-11-13T16:35:16;7.40;99.90
4934;DHT22;2482;49.154;8.254;2022-11-13T16:37:44;7.40;99.90
4934;DHT22;2482;49.154;8.254;2022-11-13T16:40:19;7.50;99.90
4934;DHT22;2482;49.154;8.254;2022-11-13T16:42:50;7.40;99.90
4934;DHT22;2482;49.154;8.254;2022-11-13T16:45:19;7.20;99.90
4934;DHT22;2482;49.154;8.254;2022-11-13T16:47:47;7.20;99.90
4934;DHT22;2482;49.154;8.254;2022-11-13T16:50:22;7.20;99.90
4934;DHT22;2482;49.154;8.254;2022-11-13T16:52:52;7.10;99.90
4934;DHT22;2482;49.154;8.254;2022-11-13T16:55:19;7.30;99.90
4934;DHT22;2482;49.154;8.254;2022-11-13T16:57:46;7.30;99.90
4934;DHT22;2482;49.154;8.254;2022-11-13T17:00:15;7.20;99.90
4934;DHT22;2482;49.154;8.254;2022-11-13T17:02:43;7.00;99.90
4934;DHT22;2482;49.154;8.254;2022-11-13T17:05:15;6.90;99.90
4934;DHT22;2482;49.154;8.254;2022-11-13T17:07:42;6.80;99.90
4934;DHT22;2482;49.154;8.254;2022-11-13T17:10:14;6.60;99.90
4934;DHT22;2482;49.154;8.254;2022-11-13T17:12:58;6.60;99.90
4934;DHT22;2482;49.154;8.254;2022-11-13T17:15:25;6.60;99.90
4934;DHT22;2482;49.154;8.254;2022-11-13T17:17:55;6.60;99.90
4934;DHT22;2482;49.154;8.254;2022-11-13T17:20:24;6.60;99.90
4934;DHT22;2482;49.154;8.254;2022-11-13T17:22:51;6.70;99.90
4934;DHT22;2482;49.154;8.254;2022-11-13T17:25:18;6.90;99.90
4934;DHT22;2482;49.154;8.254;2022-11-13T17:27:46;6.90;99.90
4934;DHT22;2482;49.154;8.254;2022-11-13T17:30:13;6.80;99.90
4934;DHT22;2482;49.154;8.254;2022-11-13T17:32:40;6.90;99.90
4934;DHT22;2482;49.154;8.254;2022-11-13T17:35:10;6.60;99.90
4934;DHT22;2482;49.154;8.254;2022-11-13T17:37:37;6.30;99.90
4934;DHT22;2482;49.154;8.254;2022-11-13T17:40:05;6.10;99.90
4934;DHT22;2482;49.154;8.254;2022-11-13T17:42:33;6.00;99.90
4934;DHT22;2482;49.154;8.254;2022-11-13T17:45:00;6.20;99.90
4934;DHT22;2482;49.154;8.254;2022-11-13T17:47:28;6.30;99.90
4934;DHT22;2482;49.154;8.254;2022-11-13T17:49:54;6.30;99.90
4934;DHT22;2482;49.154;8.254;2022-11-13T17:52:29;6.50;99.90
4934;DHT22;2482;49.154;8.254;2022-11-13T17:54:56;6.70;99.90
4934;DHT22;2482;49.154;8.254;2022-11-13T17:57:23;6.80;99.90